Terminal Aerodrome Forecast
Issued by NWS

Home | Current Version | Previous Version | Text Only | Print | Product List | Glossary On
Versions: 1 2 3 4 5 6 7 8 9 10 11 12 13 14 15 16 17 18 19 20 21 22 23
000
FTUS41 KGYX 171720
TAFMHT
TAF
KMHT 171720Z 1718/1818 VRB04KT P6SM SKC
     FM180600 00000KT P6SM FEW250 WS020/26030KT
     FM181300 29005KT P6SM SKC=

USA.gov is the U.S. government's official web portal to all federal, state and local government web resources and services.